sensor_id;sensor_type;location;lat;lon;timestamp;P1;durP1;ratioP1;P2;durP2;ratioP2
36555;SDS011;40859;50.560;7.268;2022-08-19T05:11:00;6.40;;;5.62;;
36555;SDS011;40859;50.560;7.268;2022-08-19T05:13:28;6.60;;;5.65;;
36555;SDS011;40859;50.560;7.268;2022-08-19T05:15:57;5.75;;;5.15;;
36555;SDS011;40859;50.560;7.268;2022-08-19T05:18:24;9.07;;;5.57;;
36555;SDS011;40859;50.560;7.268;2022-08-19T05:21:12;10.10;;;6.55;;
36555;SDS011;40859;50.560;7.268;2022-08-19T05:23:58;8.40;;;5.78;;
36555;SDS011;40859;50.560;7.268;2022-08-19T05:26:24;6.97;;;5.68;;
36555;SDS011;40859;50.560;7.268;2022-08-19T05:28:51;6.87;;;5.93;;
36555;SDS011;40859;50.560;7.268;2022-08-19T05:31:18;7.32;;;6.12;;
36555;SDS011;40859;50.560;7.268;2022-08-19T05:33:44;9.88;;;6.22;;
36555;SDS011;40859;50.560;7.268;2022-08-19T05:36:10;10.38;;;6.28;;
36555;SDS011;40859;50.560;7.268;2022-08-19T05:38:36;13.02;;;5.87;;
36555;SDS011;40859;50.560;7.268;2022-08-19T05:41:20;9.07;;;5.43;;
36555;SDS011;40859;50.560;7.268;2022-08-19T05:43:57;7.72;;;5.95;;
36555;SDS011;40859;50.560;7.268;2022-08-19T05:46:25;8.38;;;6.00;;
36555;SDS011;40859;50.560;7.268;2022-08-19T05:48:51;11.10;;;6.55;;
36555;SDS011;40859;50.560;7.268;2022-08-19T05:51:18;11.70;;;6.25;;
36555;SDS011;40859;50.560;7.268;2022-08-19T05:53:45;8.50;;;6.37;;
36555;SDS011;40859;50.560;7.268;2022-08-19T05:56:12;11.38;;;6.65;;
36555;SDS011;40859;50.560;7.268;2022-08-19T05:58:41;10.43;;;5.82;;
36555;SDS011;40859;50.560;7.268;2022-08-19T06:01:15;13.70;;;6.85;;
36555;SDS011;40859;50.560;7.268;2022-08-19T06:03:42;9.50;;;6.97;;
36555;SDS011;40859;50.560;7.268;2022-08-19T06:06:10;16.92;;;6.60;;
36555;SDS011;40859;50.560;7.268;2022-08-19T06:08:37;14.30;;;6.28;;
36555;SDS011;40859;50.560;7.268;2022-08-19T06:11:17;12.15;;;6.62;;
36555;SDS011;40859;50.560;7.268;2022-08-19T06:14:01;8.35;;;6.37;;
36555;SDS011;40859;50.560;7.268;2022-08-19T06:16:30;7.95;;;6.25;;
36555;SDS011;40859;50.560;7.268;2022-08-19T06:18:57;13.98;;;7.60;;
36555;SDS011;40859;50.560;7.268;2022-08-19T06:21:26;14.23;;;7.30;;
36555;SDS011;40859;50.560;7.268;2022-08-19T06:23:54;14.60;;;7.05;;
36555;SDS011;40859;50.560;7.268;2022-08-19T06:26:20;17.10;;;7.47;;
36555;SDS011;40859;50.560;7.268;2022-08-19T06:28:48;11.95;;;8.18;;
36555;SDS011;40859;50.560;7.268;2022-08-19T06:31:16;12.35;;;7.80;;
36555;SDS011;40859;50.560;7.268;2022-08-19T06:33:45;17.55;;;7.32;;
36555;SDS011;40859;50.560;7.268;2022-08-19T06:36:19;16.55;;;8.00;;
36555;SDS011;40859;50.560;7.268;2022-08-19T06:38:57;13.93;;;7.50;;
36555;SDS011;40859;50.560;7.268;2022-08-19T06:41:27;21.25;;;8.23;;
36555;SDS011;40859;50.560;7.268;2022-08-19T06:43:54;14.00;;;8.30;;
36555;SDS011;40859;50.560;7.268;2022-08-19T06:46:20;21.50;;;7.82;;
36555;SDS011;40859;50.560;7.268;2022-08-19T06:48:47;16.65;;;7.72;;
36555;SDS011;40859;50.560;7.268;2022-08-19T06:51:14;13.10;;;6.62;;
36555;SDS011;40859;50.560;7.268;2022-08-19T06:53:44;13.73;;;7.95;;
36555;SDS011;40859;50.560;7.268;2022-08-19T06:56:12;17.40;;;9.07;;
36555;SDS011;40859;50.560;7.268;2022-08-19T06:58:39;19.10;;;8.40;;
36555;SDS011;40859;50.560;7.268;2022-08-19T07:01:06;22.65;;;9.32;;
36555;SDS011;40859;50.560;7.268;2022-08-19T07:03:33;19.70;;;8.40;;
36555;SDS011;40859;50.560;7.268;2022-08-19T07:06:03;16.45;;;8.23;;
36555;SDS011;40859;50.560;7.268;2022-08-19T07:08:30;15.75;;;7.28;;
36555;SDS011;40859;50.560;7.268;2022-08-19T07:10:57;23.92;;;8.27;;
36555;SDS011;40859;50.560;7.268;2022-08-19T07:13:23;15.98;;;8.18;;
36555;SDS011;40859;50.560;7.268;2022-08-19T07:15:49;18.48;;;8.10;;
36555;SDS011;40859;50.560;7.268;2022-08-19T07:18:17;15.82;;;8.93;;
36555;SDS011;40859;50.560;7.268;2022-08-19T07:20:45;18.75;;;9.13;;
36555;SDS011;40859;50.560;7.268;2022-08-19T07:23:11;19.60;;;8.25;;
36555;SDS011;40859;50.560;7.268;2022-08-19T07:25:38;13.40;;;8.18;;
36555;SDS011;40859;50.560;7.268;2022-08-19T07:28:04;19.30;;;8.60;;
36555;SDS011;40859;50.560;7.268;2022-08-19T07:30:32;21.05;;;13.52;;
36555;SDS011;40859;50.560;7.268;2022-08-19T07:33:01;27.27;;;10.85;;
36555;SDS011;40859;50.560;7.268;2022-08-19T07:35:26;21.73;;;10.88;;
36555;SDS011;40859;50.560;7.268;2022-08-19T07:37:53;21.45;;;10.35;;
36555;SDS011;40859;50.560;7.268;2022-08-19T07:40:19;18.98;;;9.55;;
36555;SDS011;40859;50.560;7.268;2022-08-19T07:42:45;19.83;;;9.30;;
36555;SDS011;40859;50.560;7.268;2022-08-19T07:45:11;23.42;;;9.60;;
36555;SDS011;40859;50.560;7.268;2022-08-19T07:47:37;20.17;;;9.10;;
36555;SDS011;40859;50.560;7.268;2022-08-19T07:50:06;18.65;;;8.18;;
36555;SDS011;40859;50.560;7.268;2022-08-19T07:52:36;10.50;;;7.55;;
36555;SDS011;40859;50.560;7.268;2022-08-19T07:55:05;22.85;;;7.68;;
36555;SDS011;40859;50.560;7.268;2022-08-19T07:57:32;15.90;;;8.15;;
36555;SDS011;40859;50.560;7.268;2022-08-19T07:59:58;26.12;;;8.98;;
36555;SDS011;40859;50.560;7.268;2022-08-19T08:02:24;32.17;;;9.18;;
36555;SDS011;40859;50.560;7.268;2022-08-19T08:04:50;29.63;;;9.45;;
36555;SDS011;40859;50.560;7.268;2022-08-19T08:07:34;24.23;;;8.30;;
36555;SDS011;40859;50.560;7.268;2022-08-19T08:10:18;21.77;;;9.18;;
36555;SDS011;40859;50.560;7.268;2022-08-19T08:12:44;23.10;;;8.18;;
36555;SDS011;40859;50.560;7.268;2022-08-19T08:15:11;15.13;;;7.20;;
36555;SDS011;40859;50.560;7.268;2022-08-19T08:17:41;13.95;;;7.60;;
36555;SDS011;40859;50.560;7.268;2022-08-19T08:20:08;24.60;;;8.10;;
36555;SDS011;40859;50.560;7.268;2022-08-19T08:22:34;16.83;;;7.22;;
36555;SDS011;40859;50.560;7.268;2022-08-19T08:25:20;13.32;;;7.35;;
36555;SDS011;40859;50.560;7.268;2022-08-19T08:27:48;20.90;;;7.75;;
36555;SDS011;40859;50.560;7.268;2022-08-19T08:30:19;10.85;;;7.00;;
36555;SDS011;40859;50.560;7.268;2022-08-19T08:32:47;12.00;;;6.68;;
36555;SDS011;40859;50.560;7.268;2022-08-19T08:35:14;11.70;;;6.93;;
36555;SDS011;40859;50.560;7.268;2022-08-19T08:37:42;11.45;;;6.80;;
36555;SDS011;40859;50.560;7.268;2022-08-19T08:40:19;17.17;;;7.28;;
36555;SDS011;40859;50.560;7.268;2022-08-19T08:43:25;15.43;;;7.10;;
36555;SDS011;40859;50.560;7.268;2022-08-19T08:46:07;19.52;;;7.00;;
36555;SDS011;40859;50.560;7.268;2022-08-19T08:48:44;12.55;;;6.28;;
36555;SDS011;40859;50.560;7.268;2022-08-19T08:51:46;16.60;;;7.35;;
36555;SDS011;40859;50.560;7.268;2022-08-19T08:54:19;22.45;;;7.65;;
36555;SDS011;40859;50.560;7.268;2022-08-19T08:56:49;14.38;;;7.40;;
36555;SDS011;40859;50.560;7.268;2022-08-19T08:59:26;19.10;;;6.90;;
36555;SDS011;40859;50.560;7.268;2022-08-19T09:01:58;14.02;;;7.25;;
36555;SDS011;40859;50.560;7.268;2022-08-19T09:04:24;16.85;;;7.30;;
36555;SDS011;40859;50.560;7.268;2022-08-19T09:07:13;18.60;;;6.72;;
36555;SDS011;40859;50.560;7.268;2022-08-19T09:09:52;14.15;;;7.30;;
36555;SDS011;40859;50.560;7.268;2022-08-19T09:15:34;11.18;;;7.00;;
36555;SDS011;40859;50.560;7.268;2022-08-19T09:18:09;11.48;;;6.75;;
36555;SDS011;40859;50.560;7.268;2022-08-19T09:20:36;11.38;;;6.03;;
36555;SDS011;40859;50.560;7.268;2022-08-19T09:23:02;21.70;;;7.60;;
36555;SDS011;40859;50.560;7.268;2022-08-19T09:25:29;14.48;;;7.20;;
36555;SDS011;40859;50.560;7.268;2022-08-19T09:27:57;17.35;;;7.37;;
36555;SDS011;40859;50.560;7.268;2022-08-19T09:30:28;22.23;;;7.37;;
36555;SDS011;40859;50.560;7.268;2022-08-19T09:32:56;27.42;;;7.87;;
36555;SDS011;40859;50.560;7.268;2022-08-19T09:35:23;14.57;;;7.32;;
36555;SDS011;40859;50.560;7.268;2022-08-19T09:37:51;17.98;;;7.12;;
36555;SDS011;40859;50.560;7.268;2022-08-19T09:40:18;17.35;;;7.45;;
36555;SDS011;40859;50.560;7.268;2022-08-19T09:42:45;21.98;;;7.60;;
36555;SDS011;40859;50.560;7.268;2022-08-19T09:45:14;18.80;;;8.70;;
36555;SDS011;40859;50.560;7.268;2022-08-19T09:47:42;21.45;;;7.45;;
36555;SDS011;40859;50.560;7.268;2022-08-19T09:50:10;22.73;;;8.23;;
36555;SDS011;40859;50.560;7.268;2022-08-19T09:52:37;21.37;;;7.90;;
36555;SDS011;40859;50.560;7.268;2022-08-19T09:55:07;12.43;;;7.28;;
36555;SDS011;40859;50.560;7.268;2022-08-19T09:57:34;13.45;;;7.50;;
36555;SDS011;40859;50.560;7.268;2022-08-19T10:00:00;13.82;;;7.55;;
36555;SDS011;40859;50.560;7.268;2022-08-19T10:02:28;21.58;;;7.37;;
36555;SDS011;40859;50.560;7.268;2022-08-19T10:04:54;17.30;;;7.10;;
36555;SDS011;40859;50.560;7.268;2022-08-19T10:07:39;16.75;;;8.32;;
36555;SDS011;40859;50.560;7.268;2022-08-19T10:10:06;15.23;;;8.25;;
36555;SDS011;40859;50.560;7.268;2022-08-19T10:12:34;16.92;;;8.23;;
36555;SDS011;40859;50.560;7.268;2022-08-19T10:15:01;20.98;;;8.75;;
36555;SDS011;40859;50.560;7.268;2022-08-19T10:17:29;14.68;;;7.72;;
36555;SDS011;40859;50.560;7.268;2022-08-19T10:19:58;15.90;;;8.60;;
36555;SDS011;40859;50.560;7.268;2022-08-19T10:22:24;21.48;;;8.90;;
36555;SDS011;40859;50.560;7.268;2022-08-19T10:24:50;19.85;;;9.05;;
36555;SDS011;40859;50.560;7.268;2022-08-19T10:27:17;13.32;;;9.30;;
36555;SDS011;40859;50.560;7.268;2022-08-19T10:29:43;18.85;;;9.05;;
36555;SDS011;40859;50.560;7.268;2022-08-19T10:32:09;12.35;;;9.40;;
36555;SDS011;40859;50.560;7.268;2022-08-19T10:34:38;12.77;;;9.32;;
36555;SDS011;40859;50.560;7.268;2022-08-19T10:37:05;23.62;;;8.55;;
36555;SDS011;40859;50.560;7.268;2022-08-19T10:39:35;15.27;;;10.40;;
36555;SDS011;40859;50.560;7.268;2022-08-19T10:42:05;17.95;;;11.57;;
36555;SDS011;40859;50.560;7.268;2022-08-19T10:44:32;22.42;;;10.52;;
36555;SDS011;40859;50.560;7.268;2022-08-19T10:47:00;24.48;;;12.68;;
36555;SDS011;40859;50.560;7.268;2022-08-19T10:49:26;15.93;;;10.73;;
36555;SDS011;40859;50.560;7.268;2022-08-19T10:51:52;20.25;;;9.93;;
36555;SDS011;40859;50.560;7.268;2022-08-19T10:54:36;26.48;;;14.63;;
36555;SDS011;40859;50.560;7.268;2022-08-19T10:57:20;18.87;;;11.10;;
36555;SDS011;40859;50.560;7.268;2022-08-19T10:59:49;20.77;;;12.85;;
36555;SDS011;40859;50.560;7.268;2022-08-19T11:02:14;18.10;;;10.57;;
36555;SDS011;40859;50.560;7.268;2022-08-19T11:04:40;21.50;;;9.55;;
36555;SDS011;40859;50.560;7.268;2022-08-19T11:07:06;20.48;;;10.40;;
36555;SDS011;40859;50.560;7.268;2022-08-19T11:09:36;15.80;;;10.63;;
36555;SDS011;40859;50.560;7.268;2022-08-19T11:12:04;25.08;;;10.52;;
36555;SDS011;40859;50.560;7.268;2022-08-19T11:14:31;16.95;;;11.25;;
36555;SDS011;40859;50.560;7.268;2022-08-19T11:16:58;17.60;;;10.73;;
36555;SDS011;40859;50.560;7.268;2022-08-19T11:19:25;18.12;;;10.60;;
36555;SDS011;40859;50.560;7.268;2022-08-19T11:21:51;21.02;;;8.63;;
36555;SDS011;40859;50.560;7.268;2022-08-19T11:24:23;19.87;;;10.95;;
36555;SDS011;40859;50.560;7.268;2022-08-19T11:26:52;19.50;;;9.95;;
36555;SDS011;40859;50.560;7.268;2022-08-19T11:29:24;12.02;;;8.88;;
36555;SDS011;40859;50.560;7.268;2022-08-19T11:31:53;14.63;;;9.68;;
36555;SDS011;40859;50.560;7.268;2022-08-19T11:34:21;15.30;;;8.93;;
36555;SDS011;40859;50.560;7.268;2022-08-19T11:36:49;12.43;;;9.00;;
36555;SDS011;40859;50.560;7.268;2022-08-19T11:39:17;20.05;;;10.95;;
36555;SDS011;40859;50.560;7.268;2022-08-19T11:41:45;25.35;;;10.00;;
36555;SDS011;40859;50.560;7.268;2022-08-19T11:44:12;14.18;;;8.88;;
36555;SDS011;40859;50.560;7.268;2022-08-19T11:46:39;10.07;;;8.65;;
36555;SDS011;40859;50.560;7.268;2022-08-19T11:49:10;15.45;;;9.15;;
36555;SDS011;40859;50.560;7.268;2022-08-19T11:51:37;16.77;;;8.73;;
36555;SDS011;40859;50.560;7.268;2022-08-19T11:54:04;12.93;;;8.43;;
36555;SDS011;40859;50.560;7.268;2022-08-19T11:56:31;18.92;;;10.40;;
36555;SDS011;40859;50.560;7.268;2022-08-19T11:58:57;15.20;;;9.25;;
36555;SDS011;40859;50.560;7.268;2022-08-19T12:01:24;11.35;;;8.45;;
36555;SDS011;40859;50.560;7.268;2022-08-19T12:03:52;12.85;;;8.82;;
36555;SDS011;40859;50.560;7.268;2022-08-19T12:06:24;11.35;;;8.75;;
36555;SDS011;40859;50.560;7.268;2022-08-19T12:08:57;14.07;;;8.68;;
36555;SDS011;40859;50.560;7.268;2022-08-19T12:11:24;18.20;;;8.35;;
36555;SDS011;40859;50.560;7.268;2022-08-19T12:13:50;14.27;;;8.45;;
36555;SDS011;40859;50.560;7.268;2022-08-19T12:16:18;11.93;;;8.48;;
36555;SDS011;40859;50.560;7.268;2022-08-19T12:18:47;12.50;;;8.20;;
36555;SDS011;40859;50.560;7.268;2022-08-19T12:21:14;13.40;;;7.32;;
36555;SDS011;40859;50.560;7.268;2022-08-19T12:23:41;9.52;;;7.62;;
36555;SDS011;40859;50.560;7.268;2022-08-19T12:26:08;14.10;;;7.93;;
36555;SDS011;40859;50.560;7.268;2022-08-19T12:28:35;11.98;;;6.87;;
36555;SDS011;40859;50.560;7.268;2022-08-19T12:31:01;11.30;;;7.03;;
36555;SDS011;40859;50.560;7.268;2022-08-19T12:33:28;8.85;;;7.03;;
36555;SDS011;40859;50.560;7.268;2022-08-19T12:35:54;10.18;;;6.75;;
36555;SDS011;40859;50.560;7.268;2022-08-19T12:38:24;10.45;;;6.62;;
36555;SDS011;40859;50.560;7.268;2022-08-19T12:40:50;8.45;;;6.30;;
36555;SDS011;40859;50.560;7.268;2022-08-19T12:43:19;6.80;;;5.90;;
36555;SDS011;40859;50.560;7.268;2022-08-19T12:45:45;19.10;;;7.32;;
36555;SDS011;40859;50.560;7.268;2022-08-19T12:48:11;11.57;;;6.18;;
36555;SDS011;40859;50.560;7.268;2022-08-19T12:50:41;11.50;;;6.87;;
36555;SDS011;40859;50.560;7.268;2022-08-19T12:53:09;8.07;;;6.70;;
36555;SDS011;40859;50.560;7.268;2022-08-19T12:55:37;7.93;;;6.68;;
36555;SDS011;40859;50.560;7.268;2022-08-19T12:58:03;15.13;;;7.37;;
36555;SDS011;40859;50.560;7.268;2022-08-19T13:00:29;12.90;;;7.12;;
36555;SDS011;40859;50.560;7.268;2022-08-19T13:02:58;9.82;;;6.95;;
36555;SDS011;40859;50.560;7.268;2022-08-19T13:05:27;12.35;;;6.85;;
36555;SDS011;40859;50.560;7.268;2022-08-19T13:07:55;10.27;;;7.55;;
36555;SDS011;40859;50.560;7.268;2022-08-19T13:10:26;10.90;;;7.43;;
36555;SDS011;40859;50.560;7.268;2022-08-19T13:12:54;9.07;;;7.28;;
36555;SDS011;40859;50.560;7.268;2022-08-19T13:15:21;11.70;;;8.10;;
36555;SDS011;40859;50.560;7.268;2022-08-19T13:17:49;10.38;;;7.90;;
36555;SDS011;40859;50.560;7.268;2022-08-19T13:20:18;14.57;;;8.70;;
36555;SDS011;40859;50.560;7.268;2022-08-19T13:22:45;15.75;;;8.43;;
36555;SDS011;40859;50.560;7.268;2022-08-19T13:25:13;14.30;;;9.43;;
36555;SDS011;40859;50.560;7.268;2022-08-19T13:27:42;10.85;;;8.57;;
36555;SDS011;40859;50.560;7.268;2022-08-19T13:30:10;10.93;;;8.50;;
36555;SDS011;40859;50.560;7.268;2022-08-19T13:32:56;19.20;;;9.77;;
36555;SDS011;40859;50.560;7.268;2022-08-19T13:35:43;13.07;;;9.23;;
36555;SDS011;40859;50.560;7.268;2022-08-19T13:38:12;12.00;;;9.17;;
36555;SDS011;40859;50.560;7.268;2022-08-19T13:40:40;12.90;;;8.50;;
36555;SDS011;40859;50.560;7.268;2022-08-19T13:43:06;13.82;;;9.13;;
36555;SDS011;40859;50.560;7.268;2022-08-19T13:45:33;13.55;;;8.85;;
36555;SDS011;40859;50.560;7.268;2022-08-19T13:48:00;11.90;;;8.60;;
36555;SDS011;40859;50.560;7.268;2022-08-19T13:50:31;11.15;;;9.18;;
36555;SDS011;40859;50.560;7.268;2022-08-19T13:52:58;12.37;;;9.93;;
36555;SDS011;40859;50.560;7.268;2022-08-19T13:55:26;14.87;;;10.43;;
36555;SDS011;40859;50.560;7.268;2022-08-19T13:57:53;16.60;;;10.23;;
36555;SDS011;40859;50.560;7.268;2022-08-19T14:00:21;13.18;;;10.63;;
36555;SDS011;40859;50.560;7.268;2022-08-19T14:02:50;13.68;;;10.85;;
36555;SDS011;40859;50.560;7.268;2022-08-19T14:05:19;16.40;;;11.52;;
36555;SDS011;40859;50.560;7.268;2022-08-19T14:07:45;13.50;;;10.60;;
36555;SDS011;40859;50.560;7.268;2022-08-19T14:10:13;15.10;;;10.13;;
36555;SDS011;40859;50.560;7.268;2022-08-19T14:12:40;15.05;;;10.35;;
36555;SDS011;40859;50.560;7.268;2022-08-19T14:15:06;14.23;;;10.43;;
36555;SDS011;40859;50.560;7.268;2022-08-19T14:17:33;14.80;;;10.52;;
36555;SDS011;40859;50.560;7.268;2022-08-19T14:20:03;13.85;;;9.80;;
36555;SDS011;40859;50.560;7.268;2022-08-19T14:22:38;15.90;;;9.95;;
36555;SDS011;40859;50.560;7.268;2022-08-19T14:25:06;13.02;;;9.07;;
36555;SDS011;40859;50.560;7.268;2022-08-19T14:27:34;15.77;;;9.32;;
36555;SDS011;40859;50.560;7.268;2022-08-19T14:30:02;13.15;;;9.00;;
36555;SDS011;40859;50.560;7.268;2022-08-19T14:32:32;11.65;;;8.70;;
36555;SDS011;40859;50.560;7.268;2022-08-19T14:34:59;10.88;;;7.53;;
36555;SDS011;40859;50.560;7.268;2022-08-19T14:37:25;13.32;;;7.32;;
36555;SDS011;40859;50.560;7.268;2022-08-19T14:39:51;10.73;;;8.00;;
36555;SDS011;40859;50.560;7.268;2022-08-19T14:42:18;11.02;;;6.57;;
36555;SDS011;40859;50.560;7.268;2022-08-19T14:44:44;9.73;;;6.70;;
36555;SDS011;40859;50.560;7.268;2022-08-19T14:47:10;9.60;;;6.53;;
36555;SDS011;40859;50.560;7.268;2022-08-19T14:49:36;12.05;;;5.95;;
36555;SDS011;40859;50.560;7.268;2022-08-19T14:52:04;8.43;;;5.80;;
36555;SDS011;40859;50.560;7.268;2022-08-19T14:54:30;11.45;;;6.65;;
36555;SDS011;40859;50.560;7.268;2022-08-19T14:56:56;7.53;;;5.97;;
36555;SDS011;40859;50.560;7.268;2022-08-19T14:59:22;14.15;;;6.75;;
36555;SDS011;40859;50.560;7.268;2022-08-19T15:01:48;9.55;;;6.90;;
36555;SDS011;40859;50.560;7.268;2022-08-19T15:04:14;13.85;;;6.55;;
36555;SDS011;40859;50.560;7.268;2022-08-19T15:06:40;13.13;;;6.80;;
36555;SDS011;40859;50.560;7.268;2022-08-19T15:09:07;13.32;;;7.12;;
36555;SDS011;40859;50.560;7.268;2022-08-19T15:11:34;11.05;;;7.12;;
36555;SDS011;40859;50.560;7.268;2022-08-19T15:14:02;21.42;;;8.52;;
36555;SDS011;40859;50.560;7.268;2022-08-19T15:16:30;11.85;;;7.75;;
36555;SDS011;40859;50.560;7.268;2022-08-19T15:18:56;13.38;;;7.72;;
36555;SDS011;40859;50.560;7.268;2022-08-19T15:21:25;10.35;;;7.78;;
36555;SDS011;40859;50.560;7.268;2022-08-19T15:23:52;11.98;;;8.13;;
36555;SDS011;40859;50.560;7.268;2022-08-19T15:26:19;9.48;;;7.00;;
36555;SDS011;40859;50.560;7.268;2022-08-19T15:28:45;17.55;;;8.38;;
36555;SDS011;40859;50.560;7.268;2022-08-19T15:31:12;17.20;;;8.77;;
36555;SDS011;40859;50.560;7.268;2022-08-19T15:33:44;15.00;;;7.45;;
36555;SDS011;40859;50.560;7.268;2022-08-19T15:36:11;17.17;;;7.50;;
36555;SDS011;40859;50.560;7.268;2022-08-19T15:38:37;21.17;;;10.05;;
36555;SDS011;40859;50.560;7.268;2022-08-19T15:41:04;17.27;;;8.48;;
36555;SDS011;40859;50.560;7.268;2022-08-19T15:43:55;18.08;;;8.77;;
36555;SDS011;40859;50.560;7.268;2022-08-19T15:46:33;15.95;;;7.80;;
36555;SDS011;40859;50.560;7.268;2022-08-19T15:49:00;17.17;;;8.45;;
36555;SDS011;40859;50.560;7.268;2022-08-19T15:51:29;13.18;;;8.80;;
36555;SDS011;40859;50.560;7.268;2022-08-19T15:53:59;22.27;;;8.82;;
36555;SDS011;40859;50.560;7.268;2022-08-19T15:56:28;10.60;;;6.85;;
36555;SDS011;40859;50.560;7.268;2022-08-19T15:59:12;11.50;;;7.65;;
36555;SDS011;40859;50.560;7.268;2022-08-19T16:01:57;12.25;;;7.95;;
36555;SDS011;40859;50.560;7.268;2022-08-19T16:04:41;13.35;;;8.32;;
36555;SDS011;40859;50.560;7.268;2022-08-19T16:07:26;9.77;;;6.75;;
36555;SDS011;40859;50.560;7.268;2022-08-19T16:09:52;12.05;;;7.70;;
36555;SDS011;40859;50.560;7.268;2022-08-19T16:12:17;13.30;;;7.18;;
36555;SDS011;40859;50.560;7.268;2022-08-19T16:14:43;13.62;;;7.78;;
36555;SDS011;40859;50.560;7.268;2022-08-19T16:17:09;21.35;;;7.93;;
36555;SDS011;40859;50.560;7.268;2022-08-19T16:19:36;15.13;;;7.05;;
36555;SDS011;40859;50.560;7.268;2022-08-19T16:22:03;10.40;;;7.20;;
36555;SDS011;40859;50.560;7.268;2022-08-19T16:24:30;11.00;;;7.28;;
36555;SDS011;40859;50.560;7.268;2022-08-19T16:26:57;10.95;;;7.55;;
36555;SDS011;40859;50.560;7.268;2022-08-19T16:29:26;12.70;;;7.72;;
36555;SDS011;40859;50.560;7.268;2022-08-19T16:31:53;12.37;;;7.40;;
36555;SDS011;40859;50.560;7.268;2022-08-19T16:34:21;11.23;;;6.78;;
36555;SDS011;40859;50.560;7.268;2022-08-19T16:36:49;11.10;;;8.00;;
36555;SDS011;40859;50.560;7.268;2022-08-19T16:39:15;10.35;;;6.45;;
36555;SDS011;40859;50.560;7.268;2022-08-19T16:41:42;8.30;;;6.47;;
36555;SDS011;40859;50.560;7.268;2022-08-19T16:44:10;14.07;;;7.35;;
36555;SDS011;40859;50.560;7.268;2022-08-19T16:46:38;11.77;;;7.25;;
36555;SDS011;40859;50.560;7.268;2022-08-19T16:49:08;9.95;;;6.53;;
36555;SDS011;40859;50.560;7.268;2022-08-19T16:51:35;8.93;;;6.57;;
36555;SDS011;40859;50.560;7.268;2022-08-19T16:54:02;8.75;;;5.97;;
36555;SDS011;40859;50.560;7.268;2022-08-19T16:56:29;11.35;;;7.12;;
36555;SDS011;40859;50.560;7.268;2022-08-19T16:58:55;9.70;;;6.30;;
36555;SDS011;40859;50.560;7.268;2022-08-19T17:01:24;10.13;;;6.50;;
36555;SDS011;40859;50.560;7.268;2022-08-19T17:03:51;12.98;;;6.28;;
36555;SDS011;40859;50.560;7.268;2022-08-19T17:06:21;8.95;;;5.80;;
36555;SDS011;40859;50.560;7.268;2022-08-19T17:08:54;8.40;;;5.37;;
36555;SDS011;40859;50.560;7.268;2022-08-19T17:11:23;7.32;;;5.50;;
36555;SDS011;40859;50.560;7.268;2022-08-19T17:13:51;11.05;;;5.75;;
36555;SDS011;40859;50.560;7.268;2022-08-19T17:16:18;7.72;;;5.53;;
36555;SDS011;40859;50.560;7.268;2022-08-19T17:18:46;7.75;;;5.12;;
36555;SDS011;40859;50.560;7.268;2022-08-19T17:21:20;6.03;;;5.00;;
36555;SDS011;40859;50.560;7.268;2022-08-19T17:23:47;9.30;;;6.03;;
36555;SDS011;40859;50.560;7.268;2022-08-19T17:26:14;7.30;;;5.03;;
36555;SDS011;40859;50.560;7.268;2022-08-19T17:28:41;7.97;;;5.72;;
36555;SDS011;40859;50.560;7.268;2022-08-19T17:31:07;8.68;;;5.60;;
36555;SDS011;40859;50.560;7.268;2022-08-19T17:33:33;7.47;;;4.87;;
36555;SDS011;40859;50.560;7.268;2022-08-19T17:35:59;7.22;;;5.50;;
36555;SDS011;40859;50.560;7.268;2022-08-19T17:38:28;7.30;;;4.68;;
36555;SDS011;40859;50.560;7.268;2022-08-19T17:40:54;5.20;;;4.15;;
36555;SDS011;40859;50.560;7.268;2022-08-19T17:43:28;7.20;;;5.22;;
36555;SDS011;40859;50.560;7.268;2022-08-19T17:45:57;7.05;;;4.95;;
36555;SDS011;40859;50.560;7.268;2022-08-19T17:48:27;9.73;;;4.80;;
36555;SDS011;40859;50.560;7.268;2022-08-19T17:50:54;10.18;;;5.70;;
36555;SDS011;40859;50.560;7.268;2022-08-19T17:53:20;6.68;;;4.57;;
36555;SDS011;40859;50.560;7.268;2022-08-19T17:55:46;6.40;;;4.80;;
36555;SDS011;40859;50.560;7.268;2022-08-19T17:58:11;6.65;;;4.53;;
36555;SDS011;40859;50.560;7.268;2022-08-19T18:00:37;7.22;;;4.60;;
36555;SDS011;40859;50.560;7.268;2022-08-19T18:03:04;5.37;;;3.92;;
36555;SDS011;40859;50.560;7.268;2022-08-19T18:05:31;8.70;;;4.68;;
36555;SDS011;40859;50.560;7.268;2022-08-19T18:08:00;4.30;;;3.53;;
36555;SDS011;40859;50.560;7.268;2022-08-19T18:10:27;6.87;;;4.90;;
36555;SDS011;40859;50.560;7.268;2022-08-19T18:12:56;4.87;;;3.72;;
36555;SDS011;40859;50.560;7.268;2022-08-19T18:15:23;5.90;;;4.37;;
36555;SDS011;40859;50.560;7.268;2022-08-19T18:17:50;5.03;;;3.72;;
36555;SDS011;40859;50.560;7.268;2022-08-19T18:20:16;9.35;;;4.10;;
36555;SDS011;40859;50.560;7.268;2022-08-19T18:22:44;5.45;;;3.97;;
36555;SDS011;40859;50.560;7.268;2022-08-19T18:25:19;6.12;;;4.40;;
36555;SDS011;40859;50.560;7.268;2022-08-19T18:27:49;6.62;;;3.87;;
36555;SDS011;40859;50.560;7.268;2022-08-19T18:30:25;8.30;;;4.57;;
36555;SDS011;40859;50.560;7.268;2022-08-19T18:32:59;7.30;;;4.22;;
36555;SDS011;40859;50.560;7.268;2022-08-19T18:35:27;5.65;;;4.07;;
36555;SDS011;40859;50.560;7.268;2022-08-19T18:37:59;7.95;;;4.37;;
36555;SDS011;40859;50.560;7.268;2022-08-19T18:45:27;7.32;;;4.50;;
36555;SDS011;40859;50.560;7.268;2022-08-19T18:48:12;6.12;;;4.35;;
36555;SDS011;40859;50.560;7.268;2022-08-19T18:53:23;3.47;;;2.70;;
36555;SDS011;40859;50.560;7.268;2022-08-19T18:55:50;5.47;;;3.58;;
36555;SDS011;40859;50.560;7.268;2022-08-19T18:58:17;5.03;;;3.95;;
36555;SDS011;40859;50.560;7.268;2022-08-19T19:00:43;8.82;;;3.50;;
36555;SDS011;40859;50.560;7.268;2022-08-19T19:03:10;5.93;;;3.45;;
36555;SDS011;40859;50.560;7.268;2022-08-19T19:05:36;3.78;;;3.00;;
36555;SDS011;40859;50.560;7.268;2022-08-19T19:08:04;4.80;;;3.10;;
36555;SDS011;40859;50.560;7.268;2022-08-19T19:10:30;8.05;;;3.33;;
36555;SDS011;40859;50.560;7.268;2022-08-19T19:12:56;10.45;;;3.30;;
36555;SDS011;40859;50.560;7.268;2022-08-19T19:15:23;4.53;;;3.10;;
36555;SDS011;40859;50.560;7.268;2022-08-19T19:17:48;4.85;;;2.90;;
36555;SDS011;40859;50.560;7.268;2022-08-19T19:20:14;5.55;;;3.17;;
36555;SDS011;40859;50.560;7.268;2022-08-19T19:22:42;8.68;;;3.58;;
36555;SDS011;40859;50.560;7.268;2022-08-19T19:25:09;4.55;;;3.47;;
36555;SDS011;40859;50.560;7.268;2022-08-19T19:27:35;5.00;;;3.42;;
36555;SDS011;40859;50.560;7.268;2022-08-19T19:30:04;5.55;;;3.17;;
36555;SDS011;40859;50.560;7.268;2022-08-19T19:32:31;5.95;;;3.05;;
36555;SDS011;40859;50.560;7.268;2022-08-19T19:35:03;4.07;;;2.67;;
36555;SDS011;40859;50.560;7.268;2022-08-19T19:37:30;6.35;;;2.47;;
36555;SDS011;40859;50.560;7.268;2022-08-19T19:39:57;13.05;;;3.60;;
36555;SDS011;40859;50.560;7.268;2022-08-19T19:42:23;4.03;;;2.53;;
36555;SDS011;40859;50.560;7.268;2022-08-19T19:44:50;6.75;;;3.03;;
36555;SDS011;40859;50.560;7.268;2022-08-19T19:47:18;6.55;;;2.58;;
36555;SDS011;40859;50.560;7.268;2022-08-19T19:49:48;2.97;;;2.10;;
36555;SDS011;40859;50.560;7.268;2022-08-19T19:52:19;4.35;;;2.45;;
36555;SDS011;40859;50.560;7.268;2022-08-19T19:54:45;7.82;;;2.65;;
36555;SDS011;40859;50.560;7.268;2022-08-19T19:57:11;5.47;;;2.58;;
36555;SDS011;40859;50.560;7.268;2022-08-19T19:59:37;4.57;;;2.65;;
36555;SDS011;40859;50.560;7.268;2022-08-19T20:02:03;7.80;;;2.67;;
36555;SDS011;40859;50.560;7.268;2022-08-19T20:04:29;4.53;;;2.45;;
36555;SDS011;40859;50.560;7.268;2022-08-19T20:06:58;11.98;;;2.50;;
36555;SDS011;40859;50.560;7.268;2022-08-19T20:09:24;4.47;;;2.70;;